Time;durP1;ratioP1;P1;durP2;ratioP2;P2;SDS_P1;SDS_P2;PMS_P1;PMS_P2;Temp;Humidity;BMP_temperature;BMP_pressure;BME280_temperature;BME280_humidity;BME280_pressure;Samples;Min_cycle;Max_cycle;Signal;HPM_P1;HPM_P2
2023/05/29 00:08:43;;;;;;;10.07;2.55;;;12.60;1.00;;;;;;20911585;28;20056;-42
2023/05/29 00:18:45;;;;;;;6.40;2.10;;;12.50;1.00;;;;;;20888341;28;20047;-42
2023/05/29 00:28:46;;;;;;;7.57;2.15;;;12.30;1.00;;;;;;20905370;28;20037;-42
2023/05/29 00:38:47;;;;;;;7.53;2.08;;;12.20;1.00;;;;;;20898446;28;20370;-42
2023/05/29 00:48:49;;;;;;;7.60;1.70;;;12.10;1.00;;;;;;20898031;28;20041;-42
2023/05/29 00:58:51;;;;;;;5.22;1.77;;;12.00;1.00;;;;;;20905164;28;20044;-42
2023/05/29 01:08:52;;;;;;;4.60;1.55;;;11.90;1.00;;;;;;20906214;28;20048;-43
2023/05/29 01:19:27;;;;;;;9.30;1.75;;;11.80;1.00;;;;;;20912161;28;20620;-42
2023/05/29 01:29:32;;;;;;;6.53;1.38;;;11.70;1.00;;;;;;20887867;28;20416;-43
2023/05/29 01:39:33;;;;;;;6.65;2.28;;;11.60;1.00;;;;;;20902074;28;21852;-41
2023/05/29 01:49:37;;;;;;;6.72;1.35;;;11.50;1.00;;;;;;20890901;28;20044;-42
2023/05/29 01:59:38;;;;;;;4.57;1.20;;;11.40;1.00;;;;;;20891769;28;20047;-42
2023/05/29 02:09:39;;;;;;;4.53;1.65;;;11.40;1.00;;;;;;20894717;28;20485;-42
2023/05/29 02:19:40;;;;;;;7.05;1.63;;;11.30;1.00;;;;;;20892192;28;20044;-42
2023/05/29 02:29:41;;;;;;;3.13;1.20;;;11.30;1.00;;;;;;20886073;28;20147;-43
2023/05/29 02:39:42;;;;;;;6.72;1.80;;;11.20;1.00;;;;;;20881854;28;20037;-42
2023/05/29 02:49:43;;;;;;;6.90;1.15;;;11.20;1.00;;;;;;20885315;28;20044;-42
2023/05/29 02:59:45;;;;;;;6.97;1.17;;;11.00;1.00;;;;;;20892664;28;20504;-42
2023/05/29 03:09:46;;;;;;;8.80;1.75;;;11.00;1.00;;;;;;20887892;28;20041;-42
2023/05/29 03:19:47;;;;;;;7.30;2.05;;;11.00;1.00;;;;;;20884746;28;20056;-43
2023/05/29 03:29:48;;;;;;;7.50;1.05;;;10.90;1.00;;;;;;20886141;28;20044;-42
2023/05/29 03:39:49;;;;;;;5.65;1.95;;;10.90;1.00;;;;;;20885622;28;20087;-43
2023/05/29 03:49:51;;;;;;;10.95;1.50;;;10.80;1.00;;;;;;20889594;28;20044;-43
2023/05/29 03:59:52;;;;;;;8.43;1.58;;;10.80;1.00;;;;;;20887924;28;20051;-42
2023/05/29 04:09:53;;;;;;;5.18;1.92;;;10.70;1.00;;;;;;20896512;28;20533;-42
2023/05/29 04:19:54;;;;;;;5.95;1.58;;;10.70;1.00;;;;;;20907403;28;20041;-42
2023/05/29 04:29:56;;;;;;;10.27;1.70;;;10.70;1.00;;;;;;20917032;28;20536;-43
2023/05/29 04:39:57;;;;;;;4.55;1.38;;;10.70;1.00;;;;;;20893664;28;20045;-43
2023/05/29 04:50:01;;;;;;;10.20;1.55;;;10.80;1.00;;;;;;20890213;28;20045;-43
2023/05/29 05:00:07;;;;;;;10.93;1.30;;;10.90;1.00;;;;;;20903749;28;20051;-43
2023/05/29 05:10:08;;;;;;;4.30;1.55;;;11.10;1.00;;;;;;20894766;28;20048;-43
2023/05/29 05:20:11;;;;;;;7.85;2.53;;;11.30;1.00;;;;;;20896167;28;20089;-43
2023/05/29 05:30:12;;;;;;;7.10;1.30;;;11.50;1.00;;;;;;20909090;28;20041;-43
2023/05/29 05:40:14;;;;;;;9.60;2.50;;;11.80;1.00;;;;;;20895816;28;20523;-42
2023/05/29 05:50:15;;;;;;;7.22;1.58;;;12.10;1.00;;;;;;20890151;28;20741;-42
2023/05/29 06:00:16;;;;;;;6.22;1.48;;;12.20;1.00;;;;;;20902821;28;20029;-42
2023/05/29 06:10:18;;;;;;;5.72;2.08;;;12.60;1.00;;;;;;20895011;28;20059;-42
2023/05/29 06:20:20;;;;;;;6.80;1.58;;;12.80;1.00;;;;;;20894834;28;20116;-42
2023/05/29 06:30:20;;;;;;;6.05;0.93;;;13.00;1.00;;;;;;20901516;28;20055;-42
2023/05/29 06:40:22;;;;;;;10.23;2.70;;;13.10;1.00;;;;;;20908798;28;20515;-42
2023/05/29 06:50:23;;;;;;;5.05;1.33;;;13.20;1.00;;;;;;20911151;28;20376;-42
2023/05/29 07:00:24;;;;;;;7.70;2.05;;;13.50;1.00;;;;;;20916420;28;20049;-43
2023/05/29 07:10:25;;;;;;;6.07;2.15;;;13.50;1.00;;;;;;20899394;28;20052;-42
2023/05/29 07:20:26;;;;;;;8.95;1.42;;;13.50;1.00;;;;;;20899913;28;20037;-41
2023/05/29 07:30:27;;;;;;;3.75;1.55;;;13.70;1.00;;;;;;20881151;28;20045;-41
2023/05/29 07:40:28;;;;;;;5.20;1.33;;;13.80;1.00;;;;;;20881284;28;20041;-41
2023/05/29 07:50:29;;;;;;;6.10;1.52;;;13.90;1.00;;;;;;20880121;28;20036;-41
2023/05/29 08:00:30;;;;;;;5.13;1.23;;;13.90;1.00;;;;;;20888797;28;20036;-41
2023/05/29 08:10:31;;;;;;;6.22;1.33;;;13.90;1.00;;;;;;20884402;28;20538;-41
2023/05/29 08:20:34;;;;;;;9.82;1.30;;;14.00;1.00;;;;;;20876124;28;20037;-41
2023/05/29 08:30:35;;;;;;;4.63;1.30;;;14.50;1.00;;;;;;20881805;28;20047;-41
2023/05/29 08:40:36;;;;;;;8.05;1.90;;;14.40;1.00;;;;;;20880519;28;20037;-41
2023/05/29 08:50:46;;;;;;;6.10;1.25;;;14.40;1.00;;;;;;20888344;28;20400;-41
2023/05/29 09:00:48;;;;;;;8.85;1.92;;;14.50;1.00;;;;;;20918201;28;20529;-41
2023/05/29 09:10:49;;;;;;;4.93;1.00;;;14.50;1.00;;;;;;20918547;28;20527;-41
2023/05/29 09:20:50;;;;;;;4.00;1.52;;;14.70;1.00;;;;;;20920216;28;20064;-42
2023/05/29 09:30:51;;;;;;;4.95;1.85;;;14.90;1.00;;;;;;20910720;28;20048;-41
2023/05/29 09:40:55;;;;;;;3.05;0.98;;;15.10;1.00;;;;;;20900370;28;20039;-41
2023/05/29 09:50:57;;;;;;;9.25;1.40;;;15.40;1.00;;;;;;20902955;28;20045;-41
2023/05/29 10:00:59;;;;;;;5.40;1.30;;;15.60;1.00;;;;;;20904804;28;20036;-41
2023/05/29 10:11:09;;;;;;;6.38;1.48;;;15.60;1.00;;;;;;20887895;28;20056;-41
2023/05/29 10:21:12;;;;;;;4.75;1.58;;;16.00;1.00;;;;;;20884861;28;20040;-41
2023/05/29 10:31:18;;;;;;;10.38;2.88;;;16.00;1.00;;;;;;20894772;28;20504;-41
2023/05/29 10:41:26;;;;;;;3.60;1.23;;;16.10;1.00;;;;;;20888983;28;20047;-41
2023/05/29 10:51:28;;;;;;;5.93;1.77;;;16.20;1.00;;;;;;20872363;28;20603;-41
2023/05/29 11:01:30;;;;;;;4.50;1.52;;;16.30;1.00;;;;;;20855954;28;20044;-41
2023/05/29 11:11:34;;;;;;;7.25;1.60;;;16.50;1.00;;;;;;20868136;28;20044;-41
2023/05/29 11:22:07;;;;;;;5.13;1.13;;;16.40;1.00;;;;;;20890688;28;20460;-40
2023/05/29 11:32:14;;;;;;;5.57;2.13;;;16.70;1.00;;;;;;20889296;28;20094;-41
2023/05/29 11:42:15;;;;;;;5.83;2.03;;;16.90;1.00;;;;;;20883076;28;20087;-41
2023/05/29 11:52:17;;;;;;;5.78;2.00;;;16.90;1.00;;;;;;20870234;28;20463;-41
2023/05/29 12:02:19;;;;;;;6.00;2.00;;;16.80;1.00;;;;;;20846813;28;20033;-41
2023/05/29 12:12:20;;;;;;;10.07;2.15;;;17.50;1.00;;;;;;20872755;28;20053;-41
2023/05/29 12:22:37;;;;;;;7.10;2.20;;;17.40;1.00;;;;;;20866965;28;20695;-41
2023/05/29 12:32:39;;;;;;;5.80;1.40;;;17.40;1.00;;;;;;20888259;28;20037;-41
2023/05/29 12:42:40;;;;;;;10.57;2.00;;;17.50;1.00;;;;;;20889711;28;20036;-41
2023/05/29 12:52:41;;;;;;;8.35;1.55;;;17.60;1.00;;;;;;20892187;28;20794;-41
2023/05/29 13:02:42;;;;;;;4.65;1.58;;;17.40;1.00;;;;;;20880301;28;20041;-41
2023/05/29 13:12:44;;;;;;;7.32;2.20;;;17.50;1.00;;;;;;20875866;28;20045;-41
2023/05/29 13:22:47;;;;;;;6.75;2.42;;;17.70;1.00;;;;;;20869931;28;20119;-41
2023/05/29 13:32:48;;;;;;;8.35;2.25;;;17.50;1.00;;;;;;20848322;28;20044;-41
2023/05/29 13:42:49;;;;;;;5.63;1.88;;;17.60;1.00;;;;;;20876847;28;20037;-41
2023/05/29 13:52:50;;;;;;;7.05;1.50;;;17.50;1.00;;;;;;20835309;28;20072;-41
2023/05/29 14:02:51;;;;;;;6.40;2.15;;;17.70;1.00;;;;;;20832881;28;20071;-41
2023/05/29 14:12:52;;;;;;;6.75;1.60;;;17.80;1.00;;;;;;20842922;28;20503;-41
2023/05/29 14:22:53;;;;;;;5.72;1.50;;;17.50;1.00;;;;;;20867716;28;20661;-41
2023/05/29 14:32:56;;;;;;;5.68;1.35;;;17.60;1.00;;;;;;20835101;28;20072;-41
2023/05/29 14:42:56;;;;;;;7.07;1.65;;;17.70;1.00;;;;;;20856433;28;20055;-41
2023/05/29 14:52:57;;;;;;;7.70;2.05;;;17.80;1.00;;;;;;20858246;28;20041;-41
2023/05/29 15:02:59;;;;;;;7.40;1.60;;;17.70;1.00;;;;;;20862291;28;20708;-41
2023/05/29 15:13:00;;;;;;;10.20;1.58;;;17.40;1.00;;;;;;20865592;28;20068;-41
2023/05/29 15:23:01;;;;;;;7.88;1.77;;;17.40;1.00;;;;;;20861822;28;20089;-41
2023/05/29 15:33:07;;;;;;;5.97;1.00;;;17.10;1.00;;;;;;20858106;28;20044;-41
2023/05/29 15:43:09;;;;;;;6.25;1.77;;;17.10;1.00;;;;;;20852533;28;20388;-41
2023/05/29 15:53:10;;;;;;;3.65;1.25;;;17.20;1.00;;;;;;20867344;28;20385;-41
2023/05/29 16:03:11;;;;;;;3.22;1.25;;;17.20;1.00;;;;;;20881502;28;20040;-41
2023/05/29 16:13:12;;;;;;;4.32;1.02;;;17.00;1.00;;;;;;20903974;28;20053;-41
2023/05/29 16:23:14;;;;;;;4.88;1.13;;;17.00;1.00;;;;;;20907910;28;20583;-41
2023/05/29 16:33:15;;;;;;;4.93;1.02;;;16.90;1.00;;;;;;20892349;28;20471;-41
2023/05/29 16:43:16;;;;;;;6.82;1.75;;;16.70;1.00;;;;;;20901429;28;20045;-41
2023/05/29 16:53:18;;;;;;;5.60;1.42;;;16.60;1.00;;;;;;20896584;28;20040;-41
2023/05/29 17:03:19;;;;;;;7.22;1.15;;;16.50;1.00;;;;;;20872522;28;20071;-41
2023/05/29 17:13:20;;;;;;;4.22;0.98;;;16.40;1.00;;;;;;20879329;28;20491;-41
2023/05/29 17:23:21;;;;;;;1.90;0.82;;;16.10;1.00;;;;;;20887638;28;20051;-41
2023/05/29 17:33:22;;;;;;;3.78;1.48;;;16.00;1.00;;;;;;20898050;28;20493;-41
2023/05/29 17:43:23;;;;;;;4.57;1.08;;;15.80;1.00;;;;;;20886315;28;20415;-41
2023/05/29 17:53:26;;;;;;;5.03;1.20;;;15.70;1.00;;;;;;20888414;28;20041;-41
2023/05/29 18:03:27;;;;;;;4.32;0.90;;;15.50;1.00;;;;;;20871289;28;20119;-41
2023/05/29 18:13:28;;;;;;;1.25;0.63;;;15.40;1.00;;;;;;20875526;28;20048;-41
2023/05/29 18:23:30;;;;;;;4.50;1.13;;;15.30;1.00;;;;;;20873940;28;20040;-42
2023/05/29 18:33:31;;;;;;;3.45;0.73;;;15.20;1.00;;;;;;20877224;28;20041;-42
2023/05/29 18:43:32;;;;;;;8.52;1.10;;;15.10;1.00;;;;;;20879241;28;20039;-42
2023/05/29 18:53:33;;;;;;;7.30;1.83;;;15.00;1.00;;;;;;20874578;28;20404;-42
2023/05/29 19:03:34;;;;;;;2.50;0.77;;;14.70;1.00;;;;;;20868768;28;20028;-41
2023/05/29 19:13:35;;;;;;;5.80;1.10;;;14.70;1.00;;;;;;20855997;28;20041;-42
2023/05/29 19:23:37;;;;;;;5.18;1.33;;;14.50;1.00;;;;;;20870954;28;20040;-41
2023/05/29 19:33:38;;;;;;;7.38;1.15;;;14.30;1.00;;;;;;20865493;28;20179;-41
2023/05/29 19:43:40;;;;;;;5.45;1.05;;;14.10;1.00;;;;;;20859971;28;20104;-41
2023/05/29 19:53:41;;;;;;;3.22;1.02;;;14.10;1.00;;;;;;20863539;28;20037;-41
2023/05/29 20:03:42;;;;;;;3.88;0.90;;;13.90;1.00;;;;;;20843396;28;20041;-42
2023/05/29 20:13:44;;;;;;;5.32;1.77;;;13.70;1.00;;;;;;20866394;28;20049;-41
2023/05/29 20:23:45;;;;;;;5.47;1.02;;;13.50;1.00;;;;;;20869563;28;20032;-41
2023/05/29 20:33:46;;;;;;;8.73;1.38;;;13.40;1.00;;;;;;20876831;28;20054;-40
2023/05/29 20:43:50;;;;;;;5.32;1.15;;;13.40;1.00;;;;;;20875038;28;20037;-41
2023/05/29 20:53:51;;;;;;;7.03;0.90;;;13.30;1.00;;;;;;20878800;28;20037;-43
2023/05/29 21:03:53;;;;;;;5.72;1.10;;;13.20;1.00;;;;;;20883881;28;20040;-41
2023/05/29 21:13:54;;;;;;;6.95;1.35;;;13.10;1.00;;;;;;20884070;28;20056;-41
2023/05/29 21:23:56;;;;;;;4.28;1.23;;;13.00;1.00;;;;;;20891658;28;20044;-41
2023/05/29 21:33:57;;;;;;;7.25;2.35;;;12.90;1.00;;;;;;20886340;28;20071;-43
2023/05/29 21:43:58;;;;;;;5.70;1.23;;;12.80;1.00;;;;;;20910068;28;20493;-41
2023/05/29 21:53:59;;;;;;;8.98;2.15;;;12.70;1.00;;;;;;20875066;28;20128;-41
2023/05/29 22:04:01;;;;;;;6.18;1.30;;;12.50;1.00;;;;;;20875224;28;20041;-41
2023/05/29 22:14:02;;;;;;;8.20;1.45;;;12.50;1.00;;;;;;20873765;28;20041;-42
2023/05/29 22:24:04;;;;;;;6.85;1.70;;;12.30;1.00;;;;;;20867134;28;20119;-41
2023/05/29 22:34:05;;;;;;;5.65;1.00;;;12.20;1.00;;;;;;20870137;28;20476;-41
2023/05/29 22:44:06;;;;;;;7.05;1.20;;;12.10;1.00;;;;;;20871254;28;20119;-41
2023/05/29 22:54:07;;;;;;;7.75;1.30;;;11.90;1.00;;;;;;20864776;28;20048;-41
2023/05/29 23:04:09;;;;;;;3.97;1.70;;;11.80;1.00;;;;;;20862221;28;20078;-41
2023/05/29 23:14:10;;;;;;;5.75;1.48;;;11.80;1.00;;;;;;20865079;28;20416;-41
2023/05/29 23:24:12;;;;;;;10.88;1.90;;;11.70;1.00;;;;;;20867298;28;20025;-41
2023/05/29 23:34:17;;;;;;;7.20;1.65;;;11.60;1.00;;;;;;20861251;28;21416;-42
2023/05/29 23:44:18;;;;;;;8.65;1.35;;;11.50;1.00;;;;;;20871946;28;20029;-41
2023/05/29 23:54:19;;;;;;;9.10;2.33;;;11.40;1.00;;;;;;20874148;28;20041;-41
